Time;durP1;ratioP1;P1;durP2;ratioP2;P2;SDS_P1;SDS_P2;PMS_P1;PMS_P2;Temp;Humidity;BMP_temperature;BMP_pressure;BME280_temperature;BME280_humidity;BME280_pressure;Samples;Min_cycle;Max_cycle;Signal;HPM_P1;HPM_P2
2023/05/02 00:00:32;;;;;;;7.37;6.67;;;16.30;75.50;;;;;;5095268;28;20860;-76
2023/05/02 00:03:00;;;;;;;6.50;5.90;;;16.30;75.30;;;;;;5095544;28;20465;-76
2023/05/02 00:05:27;;;;;;;6.27;5.67;;;16.30;75.30;;;;;;5094694;28;20522;-76
2023/05/02 00:07:55;;;;;;;6.50;5.87;;;16.30;75.00;;;;;;5097623;28;20480;-76
2023/05/02 00:10:26;;;;;;;6.10;5.60;;;16.30;75.70;;;;;;5094749;28;20469;-75
2023/05/02 00:12:53;;;;;;;7.07;6.40;;;16.30;74.60;;;;;;5095569;28;20488;-76
2023/05/02 00:15:20;;;;;;;6.50;5.90;;;16.30;74.50;;;;;;5093037;28;20470;-77
2023/05/02 00:17:48;;;;;;;5.77;5.27;;;16.20;74.40;;;;;;5094187;28;20519;-76
2023/05/02 00:20:20;;;;;;;5.47;5.07;;;16.20;74.60;;;;;;5094129;28;20531;-76
2023/05/02 00:22:49;;;;;;;5.30;4.90;;;16.20;74.70;;;;;;5085094;28;20515;-76
2023/05/02 00:25:16;;;;;;;5.77;5.10;;;16.20;74.90;;;;;;5094067;28;20473;-76
2023/05/02 00:27:45;;;;;;;5.30;4.80;;;16.10;75.10;;;;;;5093591;28;20997;-77
2023/05/02 00:30:14;;;;;;;4.97;4.47;;;16.10;75.20;;;;;;5094579;28;20548;-76
2023/05/02 00:32:43;;;;;;;5.70;4.87;;;16.10;75.30;;;;;;5093018;28;20501;-76
2023/05/02 00:35:10;;;;;;;5.67;5.17;;;16.10;76.30;;;;;;5093447;28;20484;-75
2023/05/02 00:37:37;;;;;;;6.73;5.40;;;16.00;75.80;;;;;;5092817;28;20493;-76
2023/05/02 00:40:06;;;;;;;4.93;4.53;;;16.00;76.00;;;;;;5092684;28;20526;-76
2023/05/02 00:42:40;;;;;;;6.27;5.03;;;16.00;76.10;;;;;;5092182;28;20469;-75
2023/05/02 00:45:09;;;;;;;5.37;4.93;;;15.90;76.10;;;;;;5093139;28;20480;-76
2023/05/02 00:47:39;;;;;;;4.73;4.33;;;15.90;76.10;;;;;;5092286;28;20981;-76
2023/05/02 00:50:07;;;;;;;4.63;4.23;;;15.90;76.30;;;;;;5092518;28;20473;-76
2023/05/02 00:52:38;;;;;;;4.93;4.53;;;15.90;76.00;;;;;;5092487;28;20963;-76
2023/05/02 00:55:06;;;;;;;5.77;4.73;;;15.90;75.90;;;;;;5093091;28;20534;-77
2023/05/02 00:57:34;;;;;;;4.87;4.40;;;15.80;75.60;;;;;;5092083;28;20473;-77
2023/05/02 01:00:03;;;;;;;5.60;5.20;;;15.80;75.80;;;;;;5092455;28;20473;-76
2023/05/02 01:02:39;;;;;;;6.47;5.80;;;15.80;75.70;;;;;;5092314;28;20481;-76
2023/05/02 01:05:15;;;;;;;6.20;5.17;;;15.80;75.60;;;;;;5095542;28;20472;-76
2023/05/02 01:08:15;;;;;;;5.30;4.73;;;15.80;75.70;;;;;;5093370;28;20523;-76
2023/05/02 01:10:50;;;;;;;6.27;5.77;;;15.80;75.70;;;;;;5095554;28;20488;-77
2023/05/02 01:13:22;;;;;;;7.47;6.37;;;15.80;75.80;;;;;;5096444;28;20462;-76
2023/05/02 01:15:51;;;;;;;5.57;5.17;;;15.70;76.10;;;;;;5095784;28;20815;-75
2023/05/02 01:18:24;;;;;;;6.43;5.83;;;15.70;76.40;;;;;;5096010;28;20472;-75
2023/05/02 01:21:01;;;;;;;5.97;5.47;;;15.70;76.50;;;;;;5096175;28;20483;-75
2023/05/02 01:23:36;;;;;;;7.40;5.97;;;15.70;76.80;;;;;;5095681;28;20469;-75
2023/05/02 01:26:16;;;;;;;6.80;6.20;;;15.70;76.90;;;;;;5095835;28;20775;-76
2023/05/02 01:28:55;;;;;;;6.23;5.60;;;15.70;77.40;;;;;;5094143;28;20875;-76
2023/05/02 01:31:25;;;;;;;6.80;5.83;;;15.70;77.80;;;;;;5095394;28;20551;-76
2023/05/02 01:33:56;;;;;;;6.30;5.03;;;15.60;77.90;;;;;;5094809;28;20531;-76
2023/05/02 01:36:30;;;;;;;6.13;5.30;;;15.60;78.20;;;;;;5095473;28;20500;-76
2023/05/02 01:38:59;;;;;;;6.77;6.17;;;15.60;78.50;;;;;;5094642;28;20472;-77
2023/05/02 01:41:29;;;;;;;5.73;4.83;;;15.60;78.90;;;;;;5095464;28;20465;-76
2023/05/02 01:43:59;;;;;;;6.37;5.53;;;15.60;79.10;;;;;;5095402;28;20554;-75
2023/05/02 01:46:27;;;;;;;7.90;5.30;;;15.60;79.50;;;;;;5099072;28;20465;-75
2023/05/02 01:48:57;;;;;;;6.77;6.00;;;15.60;79.70;;;;;;5096567;28;20469;-74
2023/05/02 01:51:30;;;;;;;8.67;6.23;;;15.60;80.00;;;;;;5095378;28;20472;-75
2023/05/02 01:54:00;;;;;;;5.70;5.20;;;15.60;80.40;;;;;;5095012;28;20470;-75
2023/05/02 01:56:29;;;;;;;6.70;5.77;;;15.50;80.50;;;;;;5095474;28;20473;-75
2023/05/02 01:59:06;;;;;;;5.17;4.77;;;15.50;80.80;;;;;;5094819;28;20470;-74
2023/05/02 02:01:35;;;;;;;5.40;4.87;;;15.50;81.10;;;;;;5094588;28;20473;-77
2023/05/02 02:04:10;;;;;;;5.03;4.53;;;15.50;81.30;;;;;;5094392;28;20461;-75
2023/05/02 02:06:37;;;;;;;8.30;6.03;;;15.40;81.50;;;;;;5094710;28;20950;-75
2023/05/02 02:09:04;;;;;;;6.83;5.57;;;15.40;82.00;;;;;;5094360;28;20530;-74
2023/05/02 02:11:36;;;;;;;11.63;9.37;;;15.40;82.20;;;;;;5094185;28;20461;-74
2023/05/02 02:14:09;;;;;;;7.00;6.40;;;15.30;82.60;;;;;;5092452;28;20794;-76
2023/05/02 02:16:41;;;;;;;6.50;5.40;;;15.30;82.80;;;;;;5094533;28;20512;-76
2023/05/02 02:19:11;;;;;;;5.90;5.40;;;15.30;83.10;;;;;;5093204;28;20469;-76
2023/05/02 02:21:40;;;;;;;6.83;6.10;;;15.30;83.40;;;;;;5094768;28;20518;-76
2023/05/02 02:24:08;;;;;;;9.13;6.23;;;15.20;84.20;;;;;;5094332;28;20461;-76
2023/05/02 02:26:37;;;;;;;6.30;5.10;;;15.20;83.80;;;;;;5095124;28;20469;-76
2023/05/02 02:29:05;;;;;;;6.00;4.97;;;15.20;84.20;;;;;;5094091;28;20554;-77
2023/05/02 02:31:34;;;;;;;7.27;5.20;;;15.20;84.40;;;;;;5094251;28;20504;-76
2023/05/02 02:34:04;;;;;;;6.47;5.87;;;15.20;84.60;;;;;;5093680;28;20549;-76
2023/05/02 02:36:36;;;;;;;7.33;5.80;;;15.20;85.00;;;;;;5100603;28;20483;-76
2023/05/02 02:39:16;;;;;;;6.57;5.97;;;15.10;85.20;;;;;;5093691;28;20487;-76
2023/05/02 02:41:55;;;;;;;4.90;4.50;;;15.00;85.20;;;;;;5102312;28;20472;-76
2023/05/02 02:44:39;;;;;;;4.80;4.40;;;15.00;85.50;;;;;;5102396;28;20514;-76
2023/05/02 02:47:12;;;;;;;6.27;5.67;;;14.90;85.70;;;;;;5101792;28;20563;-76
2023/05/02 02:49:48;;;;;;;5.93;5.00;;;14.90;86.10;;;;;;5099545;28;20473;-77
2023/05/02 02:52:31;;;;;;;7.87;4.70;;;14.80;86.30;;;;;;5094838;28;21026;-76
2023/05/02 02:55:00;;;;;;;4.57;4.17;;;14.80;86.40;;;;;;5092243;28;20508;-76
2023/05/02 02:57:33;;;;;;;6.33;5.10;;;14.80;86.70;;;;;;5093258;28;20590;-76
2023/05/02 03:00:09;;;;;;;4.43;4.13;;;14.70;86.70;;;;;;5093772;28;20473;-76
2023/05/02 03:02:37;;;;;;;5.30;4.40;;;14.70;86.80;;;;;;5093939;28;20830;-76
2023/05/02 03:05:07;;;;;;;4.90;4.40;;;14.70;86.90;;;;;;5093682;28;20473;-77
2023/05/02 03:07:35;;;;;;;4.43;3.73;;;14.70;86.90;;;;;;5093549;28;20453;-76
2023/05/02 03:10:04;;;;;;;6.37;4.40;;;14.70;87.10;;;;;;5094025;28;20465;-76
2023/05/02 03:12:31;;;;;;;6.67;4.53;;;14.60;87.20;;;;;;5093553;28;20490;-76
2023/05/02 03:15:19;;;;;;;4.70;4.20;;;14.60;87.30;;;;;;5098946;28;20504;-77
2023/05/02 03:17:46;;;;;;;5.20;4.47;;;14.50;87.50;;;;;;5092269;28;20466;-76
2023/05/02 03:20:13;;;;;;;4.83;4.23;;;14.50;87.80;;;;;;5093732;28;20471;-76
2023/05/02 03:22:40;;;;;;;4.40;4.00;;;14.50;88.70;;;;;;5085623;28;20480;-76
2023/05/02 03:25:08;;;;;;;4.87;4.47;;;14.40;87.90;;;;;;5106595;28;20817;-76
2023/05/02 03:27:35;;;;;;;5.00;4.50;;;14.40;88.20;;;;;;5093322;28;20554;-76
2023/05/02 03:30:02;;;;;;;4.13;3.80;;;14.40;88.40;;;;;;5093516;28;20461;-76
2023/05/02 03:32:30;;;;;;;4.75;3.67;;;14.40;88.60;;;;;;5091893;28;20472;-76
2023/05/02 03:34:59;;;;;;;4.40;4.00;;;14.30;88.70;;;;;;5093222;28;20292;-76
2023/05/02 03:37:26;;;;;;;4.57;4.07;;;14.30;89.00;;;;;;5092816;28;20467;-76
2023/05/02 03:39:54;;;;;;;3.67;3.35;;;14.30;89.20;;;;;;5086456;28;21233;-76
2023/05/02 03:42:22;;;;;;;7.25;4.13;;;14.30;89.50;;;;;;5105770;28;20303;-76
2023/05/02 03:44:52;;;;;;;5.53;3.70;;;14.30;89.70;;;;;;5092577;28;20238;-77
2023/05/02 03:47:22;;;;;;;5.13;4.18;;;14.30;90.00;;;;;;5093319;28;20548;-76
2023/05/02 03:49:53;;;;;;;4.15;3.85;;;14.20;90.00;;;;;;5092504;28;20233;-76
2023/05/02 03:52:22;;;;;;;6.23;3.53;;;14.20;90.10;;;;;;5093649;28;20227;-76
2023/05/02 03:54:51;;;;;;;4.30;3.70;;;14.20;90.30;;;;;;5091361;28;20478;-76
2023/05/02 03:57:18;;;;;;;4.50;4.10;;;14.20;90.30;;;;;;5084484;28;20669;-74
2023/05/02 03:59:46;;;;;;;5.13;3.90;;;14.20;90.40;;;;;;5092642;28;20465;-76
2023/05/02 04:02:13;;;;;;;5.50;4.53;;;14.20;90.60;;;;;;5092692;28;20310;-77
2023/05/02 04:04:41;;;;;;;5.70;4.88;;;14.10;90.60;;;;;;5092595;28;20565;-76
2023/05/02 04:07:15;;;;;;;5.20;4.80;;;14.10;90.70;;;;;;5092951;28;20231;-76
2023/05/02 04:09:42;;;;;;;6.55;4.70;;;14.10;91.20;;;;;;5092363;28;20695;-76
2023/05/02 04:12:09;;;;;;;7.38;4.65;;;14.10;91.30;;;;;;5093340;28;20219;-74
2023/05/02 04:14:36;;;;;;;4.88;4.40;;;14.10;91.20;;;;;;5092045;28;20219;-74
2023/05/02 04:17:05;;;;;;;4.40;4.00;;;14.10;91.40;;;;;;5091822;28;20243;-75
2023/05/02 04:19:32;;;;;;;4.47;3.63;;;14.10;91.60;;;;;;5092458;28;20477;-75
2023/05/02 04:21:59;;;;;;;6.65;4.38;;;14.00;91.70;;;;;;5092390;28;20451;-76
2023/05/02 04:24:29;;;;;;;7.35;5.63;;;14.00;91.90;;;;;;5092573;28;20223;-75
2023/05/02 04:26:56;;;;;;;4.93;4.32;;;14.00;92.10;;;;;;5092141;28;20235;-75
2023/05/02 04:29:23;;;;;;;4.20;3.85;;;14.00;92.20;;;;;;5098236;28;20223;-75
2023/05/02 04:31:51;;;;;;;6.43;3.97;;;14.00;92.30;;;;;;5092279;28;20223;-76
2023/05/02 04:34:18;;;;;;;4.25;3.85;;;14.00;92.40;;;;;;5089929;28;20294;-75
2023/05/02 04:36:45;;;;;;;3.90;3.50;;;14.00;92.60;;;;;;5091970;28;20262;-74
2023/05/02 04:39:13;;;;;;;3.90;3.60;;;13.90;92.60;;;;;;5092644;28;20461;-74
2023/05/02 04:41:41;;;;;;;10.03;4.00;;;14.00;92.80;;;;;;5092513;28;20469;-75
2023/05/02 04:44:08;;;;;;;5.53;4.57;;;13.90;92.90;;;;;;5093262;28;20510;-76
2023/05/02 04:46:35;;;;;;;6.50;3.75;;;13.90;93.00;;;;;;5095792;28;20283;-74
2023/05/02 04:49:02;;;;;;;5.53;4.05;;;13.90;93.10;;;;;;5096080;28;20224;-75
2023/05/02 04:51:30;;;;;;;6.78;6.10;;;14.00;93.10;;;;;;5096417;28;20536;-74
2023/05/02 04:53:57;;;;;;;7.23;5.83;;;14.00;93.20;;;;;;5095788;28;20253;-74
2023/05/02 04:56:24;;;;;;;8.07;5.03;;;14.00;93.10;;;;;;5099502;28;20464;-74
2023/05/02 04:58:52;;;;;;;6.68;6.00;;;14.00;93.10;;;;;;5098945;28;20494;-75
2023/05/02 05:01:26;;;;;;;15.40;9.70;;;14.10;93.10;;;;;;5096201;28;20565;-75
2023/05/02 05:03:53;;;;;;;7.05;5.43;;;14.10;93.10;;;;;;5096478;28;20476;-76
2023/05/02 05:06:20;;;;;;;6.00;5.37;;;14.10;93.10;;;;;;5096363;28;20219;-76
2023/05/02 05:08:47;;;;;;;5.67;4.53;;;14.10;93.10;;;;;;5096465;28;20514;-76
2023/05/02 05:11:16;;;;;;;6.18;5.57;;;14.10;93.10;;;;;;5096478;28;20453;-76
2023/05/02 05:13:43;;;;;;;5.93;5.13;;;14.20;93.10;;;;;;5098915;28;20227;-75
2023/05/02 05:16:12;;;;;;;5.20;4.70;;;14.20;93.10;;;;;;5105702;28;20538;-75
2023/05/02 05:18:40;;;;;;;7.50;4.67;;;14.20;93.10;;;;;;5101219;28;20465;-75
2023/05/02 05:21:12;;;;;;;4.27;3.93;;;14.20;93.10;;;;;;5099273;28;20476;-76
2023/05/02 05:23:44;;;;;;;4.82;4.35;;;14.30;93.10;;;;;;5105516;28;20488;-75
2023/05/02 05:26:12;;;;;;;3.60;3.30;;;14.30;93.10;;;;;;5105138;28;20223;-75
2023/05/02 05:28:39;;;;;;;4.77;4.27;;;14.30;93.00;;;;;;5099129;28;20484;-75
2023/05/02 05:31:07;;;;;;;4.60;4.20;;;14.30;93.10;;;;;;5095613;28;20514;-75
2023/05/02 05:33:38;;;;;;;8.67;6.17;;;14.20;93.00;;;;;;5095801;28;20970;-75
2023/05/02 05:36:06;;;;;;;6.43;4.77;;;14.30;93.20;;;;;;5095217;28;21008;-77
2023/05/02 05:38:33;;;;;;;5.40;3.90;;;14.30;93.20;;;;;;5095492;28;20489;-76
2023/05/02 05:41:01;;;;;;;5.35;3.75;;;14.30;93.30;;;;;;5094181;28;20468;-76
2023/05/02 05:43:28;;;;;;;6.33;5.60;;;14.30;93.30;;;;;;5095602;28;20225;-76
2023/05/02 05:45:58;;;;;;;6.63;4.47;;;14.40;93.60;;;;;;5094921;28;20539;-76
2023/05/02 05:48:25;;;;;;;6.53;5.23;;;14.40;93.60;;;;;;5094846;28;20450;-76
2023/05/02 05:50:53;;;;;;;4.67;4.17;;;14.40;93.80;;;;;;5095453;28;20477;-76
2023/05/02 05:53:20;;;;;;;7.87;4.00;;;14.40;93.90;;;;;;5094368;28;20470;-76
2023/05/02 05:55:47;;;;;;;9.10;5.93;;;14.50;94.10;;;;;;5094545;28;20500;-75
2023/05/02 05:58:15;;;;;;;9.00;5.90;;;14.50;94.10;;;;;;5094520;28;21026;-76
2023/05/02 06:00:42;;;;;;;4.87;4.37;;;14.50;94.10;;;;;;5094988;28;20508;-76
2023/05/02 06:03:10;;;;;;;5.33;4.70;;;14.60;94.20;;;;;;5094561;28;20531;-76
2023/05/02 06:05:37;;;;;;;9.83;6.33;;;14.60;94.20;;;;;;5085723;28;20943;-75
2023/05/02 06:08:07;;;;;;;9.23;5.80;;;14.70;94.30;;;;;;5094857;28;20496;-75
2023/05/02 06:10:34;;;;;;;7.50;5.57;;;14.70;94.40;;;;;;5093905;28;20567;-76
2023/05/02 06:13:01;;;;;;;6.47;5.87;;;14.70;94.40;;;;;;5099594;28;20462;-75
2023/05/02 06:15:28;;;;;;;6.43;5.83;;;14.80;94.50;;;;;;5094007;28;20480;-76
2023/05/02 06:17:56;;;;;;;6.30;5.60;;;14.90;94.60;;;;;;5094764;28;20472;-75
2023/05/02 06:20:23;;;;;;;6.37;5.77;;;14.90;94.70;;;;;;5094028;28;20465;-75
2023/05/02 06:22:50;;;;;;;7.67;6.27;;;14.90;94.80;;;;;;5086284;28;20527;-76
2023/05/02 06:25:19;;;;;;;7.03;6.33;;;14.90;95.00;;;;;;5094336;28;20472;-75
2023/05/02 06:27:46;;;;;;;10.40;7.53;;;15.00;95.00;;;;;;5094634;28;20965;-75
2023/05/02 06:30:14;;;;;;;7.87;7.07;;;15.00;95.30;;;;;;5091377;28;20526;-75
2023/05/02 06:32:42;;;;;;;9.10;7.80;;;15.10;95.60;;;;;;5101272;28;20561;-75
2023/05/02 06:35:10;;;;;;;13.57;10.73;;;15.10;95.90;;;;;;5094166;28;20466;-75
2023/05/02 06:37:38;;;;;;;12.33;8.60;;;15.10;96.10;;;;;;5093343;28;20495;-75
2023/05/02 06:40:06;;;;;;;12.20;8.83;;;15.20;96.30;;;;;;5094075;28;20492;-77
2023/05/02 06:42:34;;;;;;;9.97;8.93;;;15.20;96.30;;;;;;5093368;28;20461;-76
2023/05/02 06:45:01;;;;;;;12.37;10.40;;;15.30;96.40;;;;;;5085088;28;20473;-76
2023/05/02 06:47:28;;;;;;;10.77;9.67;;;15.30;96.30;;;;;;5093510;28;20473;-77
2023/05/02 06:49:56;;;;;;;18.53;10.17;;;15.40;96.40;;;;;;5094185;28;20530;-76
2023/05/02 06:52:23;;;;;;;10.20;9.20;;;15.30;96.40;;;;;;5094427;28;20465;-76
2023/05/02 06:54:50;;;;;;;9.50;8.60;;;15.40;96.50;;;;;;5097615;28;20807;-76
2023/05/02 06:57:21;;;;;;;12.13;8.30;;;15.40;96.50;;;;;;5092889;28;20852;-76
2023/05/02 06:59:49;;;;;;;12.33;8.70;;;15.50;96.60;;;;;;5093599;28;20487;-77
2023/05/02 07:02:24;;;;;;;7.87;7.17;;;15.50;96.80;;;;;;5093130;28;20480;-76
2023/05/02 07:04:51;;;;;;;8.30;7.20;;;15.40;96.90;;;;;;5093829;28;20465;-76
2023/05/02 07:07:20;;;;;;;7.50;6.60;;;15.40;97.00;;;;;;5093329;28;20523;-76
2023/05/02 07:09:47;;;;;;;9.73;6.90;;;15.50;97.10;;;;;;5093857;28;20462;-76
2023/05/02 07:12:14;;;;;;;10.13;7.67;;;15.60;97.30;;;;;;5092866;28;20478;-76
2023/05/02 07:14:41;;;;;;;11.30;8.27;;;15.70;97.30;;;;;;5093439;28;20485;-78
2023/05/02 07:17:10;;;;;;;9.40;7.57;;;15.70;97.30;;;;;;5093573;28;20470;-76
2023/05/02 07:19:40;;;;;;;9.90;7.33;;;15.70;97.30;;;;;;5093437;28;20453;-76
2023/05/02 07:22:15;;;;;;;6.90;6.30;;;15.80;97.30;;;;;;5092954;28;20473;-76
2023/05/02 07:24:42;;;;;;;8.83;6.77;;;15.90;97.30;;;;;;5098551;28;20464;-76
2023/05/02 07:27:10;;;;;;;9.50;6.63;;;16.00;97.30;;;;;;5077839;28;20505;-76
2023/05/02 07:29:37;;;;;;;7.17;6.03;;;16.10;97.40;;;;;;5113151;28;20484;-76
2023/05/02 07:32:05;;;;;;;7.10;6.40;;;16.20;97.40;;;;;;5105737;28;20542;-76
2023/05/02 07:34:33;;;;;;;7.20;6.50;;;16.30;97.20;;;;;;5092043;28;21035;-77
2023/05/02 07:37:00;;;;;;;8.17;5.83;;;16.40;97.20;;;;;;5091863;28;20474;-76
2023/05/02 07:39:27;;;;;;;6.37;5.67;;;16.50;97.10;;;;;;5091991;28;20526;-77
2023/05/02 07:41:55;;;;;;;5.87;5.33;;;16.50;97.00;;;;;;5107772;28;20461;-76
2023/05/02 07:44:25;;;;;;;5.83;5.20;;;16.60;96.90;;;;;;5111041;27;20533;-76
2023/05/02 07:46:52;;;;;;;6.43;5.40;;;16.70;96.80;;;;;;5112721;28;20475;-77
2023/05/02 07:49:20;;;;;;;8.57;6.73;;;16.70;96.70;;;;;;5112637;28;20625;-76
2023/05/02 07:51:48;;;;;;;6.93;4.67;;;16.70;96.70;;;;;;5111271;28;20532;-76
2023/05/02 07:54:16;;;;;;;6.60;5.23;;;16.70;96.70;;;;;;5112309;28;20549;-76
2023/05/02 07:56:43;;;;;;;5.73;5.20;;;16.70;96.50;;;;;;5112287;28;20539;-76
2023/05/02 07:59:10;;;;;;;6.40;5.80;;;16.70;96.70;;;;;;5113761;28;20968;-76
2023/05/02 08:01:38;;;;;;;7.67;6.53;;;16.70;96.70;;;;;;5112361;28;20473;-76
2023/05/02 08:04:09;;;;;;;5.53;4.63;;;16.60;96.70;;;;;;5112774;28;20867;-76
2023/05/02 08:06:36;;;;;;;5.07;4.57;;;16.60;96.80;;;;;;5103125;28;20607;-76
2023/05/02 08:09:04;;;;;;;7.60;6.23;;;16.60;96.80;;;;;;5126795;28;20483;-76
2023/05/02 08:11:31;;;;;;;4.33;3.90;;;16.60;96.80;;;;;;5112143;28;20971;-76
2023/05/02 08:13:58;;;;;;;6.50;4.23;;;16.50;96.70;;;;;;5113076;28;20541;-76
2023/05/02 08:16:25;;;;;;;5.30;4.80;;;16.60;97.10;;;;;;5112790;28;20559;-76
2023/05/02 08:18:54;;;;;;;4.37;3.97;;;16.60;96.90;;;;;;5114931;28;20468;-76
2023/05/02 08:21:21;;;;;;;4.80;4.33;;;16.60;97.00;;;;;;5117001;28;20503;-77
2023/05/02 08:23:51;;;;;;;5.13;4.40;;;16.60;97.00;;;;;;5116400;28;20882;-76
2023/05/02 08:26:20;;;;;;;4.43;4.00;;;16.60;97.10;;;;;;5116356;28;20468;-75
2023/05/02 08:28:47;;;;;;;5.93;4.27;;;16.60;97.10;;;;;;5116548;28;20567;-76
2023/05/02 08:31:14;;;;;;;5.40;4.63;;;16.60;97.20;;;;;;5117542;28;20484;-76
2023/05/02 08:33:41;;;;;;;5.70;4.80;;;16.60;97.30;;;;;;5116155;28;20469;-77
2023/05/02 08:36:12;;;;;;;4.80;4.33;;;16.60;97.80;;;;;;5116981;27;20844;-76
2023/05/02 08:38:40;;;;;;;10.80;9.13;;;16.60;97.50;;;;;;5107496;28;20472;-76
2023/05/02 08:41:10;;;;;;;8.40;6.30;;;16.60;97.50;;;;;;5116062;28;20529;-76
2023/05/02 08:43:42;;;;;;;5.60;5.10;;;16.60;97.60;;;;;;5115951;28;20480;-76
2023/05/02 08:46:11;;;;;;;6.00;5.40;;;16.50;97.70;;;;;;5111195;27;20494;-76
2023/05/02 08:48:40;;;;;;;5.83;5.33;;;16.50;97.80;;;;;;5127062;27;20552;-76
2023/05/02 08:51:09;;;;;;;6.20;5.03;;;16.50;97.90;;;;;;5117055;27;20653;-76
2023/05/02 08:53:38;;;;;;;5.90;4.70;;;16.40;97.90;;;;;;5116798;28;20551;-76
2023/05/02 08:56:06;;;;;;;5.83;5.20;;;16.30;98.00;;;;;;5116819;28;20466;-76
2023/05/02 08:58:37;;;;;;;5.70;5.07;;;16.30;98.10;;;;;;5117177;27;20473;-76
2023/05/02 09:01:10;;;;;;;6.20;5.30;;;16.30;98.30;;;;;;5116529;28;20456;-76
2023/05/02 09:03:37;;;;;;;5.50;4.97;;;16.30;98.30;;;;;;5116768;28;20487;-76
2023/05/02 09:06:09;;;;;;;6.30;4.40;;;16.30;98.40;;;;;;5116278;28;20816;-76
2023/05/02 09:08:41;;;;;;;5.93;5.20;;;16.30;98.60;;;;;;5116599;28;20969;-76
2023/05/02 09:11:09;;;;;;;5.80;4.93;;;16.30;98.80;;;;;;5116733;27;20452;-76
2023/05/02 09:13:38;;;;;;;5.23;4.70;;;16.30;98.90;;;;;;5116651;28;20484;-76
2023/05/02 09:16:10;;;;;;;6.27;4.60;;;16.30;99.00;;;;;;5116223;28;20464;-76
2023/05/02 09:18:39;;;;;;;4.80;4.13;;;16.30;99.10;;;;;;5117073;27;20551;-76
2023/05/02 09:21:08;;;;;;;5.57;4.70;;;16.30;99.30;;;;;;5120293;27;20841;-76
2023/05/02 09:23:46;;;;;;;3.90;3.60;;;16.40;99.40;;;;;;5116595;28;20906;-75
2023/05/02 09:26:15;;;;;;;4.80;4.30;;;16.50;99.50;;;;;;5116056;28;20551;-76
2023/05/02 09:28:44;;;;;;;7.70;6.53;;;16.50;99.50;;;;;;5116417;27;20461;-75
2023/05/02 09:31:15;;;;;;;6.00;5.50;;;16.50;99.50;;;;;;5114984;27;20483;-75
2023/05/02 09:33:42;;;;;;;6.10;5.50;;;16.50;99.50;;;;;;5116493;28;20472;-75
2023/05/02 09:36:12;;;;;;;5.17;4.70;;;16.60;99.60;;;;;;5114437;28;20482;-76
2023/05/02 09:38:39;;;;;;;8.40;5.90;;;16.50;99.50;;;;;;5116161;28;20486;-76
2023/05/02 09:41:08;;;;;;;4.80;4.40;;;16.50;99.60;;;;;;5115286;27;20464;-76
2023/05/02 09:43:36;;;;;;;4.63;4.20;;;16.40;99.70;;;;;;5116240;27;20782;-75
2023/05/02 09:46:04;;;;;;;5.20;4.80;;;16.30;99.80;;;;;;5115290;28;20473;-75
2023/05/02 09:48:51;;;;;;;5.70;4.30;;;16.30;99.90;;;;;;5117816;28;20539;-75
2023/05/02 09:51:19;;;;;;;4.20;3.80;;;16.30;99.90;;;;;;5115560;28;20517;-75
2023/05/02 09:53:46;;;;;;;5.27;3.70;;;16.30;99.90;;;;;;5115996;28;20457;-75
2023/05/02 09:56:13;;;;;;;5.20;4.30;;;16.40;99.90;;;;;;5114545;28;20469;-75
2023/05/02 09:58:40;;;;;;;4.00;3.60;;;16.40;99.90;;;;;;5115654;27;20492;-75
2023/05/02 10:01:07;;;;;;;3.73;3.40;;;16.40;99.90;;;;;;5114686;28;20472;-76
2023/05/02 10:03:37;;;;;;;5.93;4.00;;;16.50;99.70;;;;;;5115580;28;20487;-76
2023/05/02 10:06:11;;;;;;;4.07;3.77;;;16.60;99.70;;;;;;5114777;28;20541;-76
2023/05/02 10:08:44;;;;;;;3.83;3.40;;;16.60;99.50;;;;;;5115297;28;20472;-76
2023/05/02 10:11:26;;;;;;;3.37;2.80;;;16.60;99.20;;;;;;5112891;27;20949;-76
2023/05/02 10:13:53;;;;;;;4.40;3.17;;;16.60;99.40;;;;;;5120457;27;20580;-75
2023/05/02 10:16:27;;;;;;;3.67;3.37;;;16.60;99.10;;;;;;5114175;27;20532;-75
2023/05/02 10:19:03;;;;;;;3.40;3.10;;;16.60;99.20;;;;;;5116698;27;20563;-76
2023/05/02 10:21:32;;;;;;;4.93;4.43;;;16.50;99.30;;;;;;5125187;27;20480;-75
2023/05/02 10:24:02;;;;;;;5.60;3.50;;;16.50;99.60;;;;;;5118953;28;20552;-76
2023/05/02 10:26:30;;;;;;;4.47;4.07;;;16.40;99.80;;;;;;5117844;27;20499;-76
2023/05/02 10:28:58;;;;;;;4.67;3.90;;;16.40;99.90;;;;;;5116767;27;21029;-76
2023/05/02 10:31:36;;;;;;;6.53;3.77;;;16.40;99.90;;;;;;5122843;28;20534;-77
2023/05/02 10:34:09;;;;;;;3.80;3.33;;;16.40;99.90;;;;;;5122889;28;20467;-76
2023/05/02 10:36:36;;;;;;;3.80;3.10;;;16.40;99.90;;;;;;5114580;28;20473;-76
2023/05/02 10:39:04;;;;;;;4.10;3.70;;;16.30;99.90;;;;;;5111194;27;20493;-76
2023/05/02 10:41:34;;;;;;;4.77;3.10;;;16.20;99.90;;;;;;5113999;27;20476;-75
2023/05/02 10:44:06;;;;;;;3.67;3.20;;;16.20;99.90;;;;;;5114897;28;20464;-75
2023/05/02 10:46:35;;;;;;;3.20;2.63;;;16.20;99.90;;;;;;5113367;28;20483;-75
2023/05/02 10:49:11;;;;;;;5.27;3.90;;;16.10;99.90;;;;;;5113723;28;20461;-76
2023/05/02 10:51:40;;;;;;;3.83;3.43;;;16.10;99.90;;;;;;5119289;27;20546;-76
2023/05/02 10:54:23;;;;;;;6.80;4.20;;;16.00;99.90;;;;;;5113960;28;20464;-75
2023/05/02 10:57:14;;;;;;;4.70;3.50;;;16.00;99.90;;;;;;5104751;28;20523;-76
2023/05/02 10:59:42;;;;;;;5.13;4.30;;;15.90;99.90;;;;;;5097987;28;20453;-76
2023/05/02 11:02:57;;;;;;;7.10;5.60;;;15.70;99.90;;;;;;5113601;28;20788;-75
2023/05/02 11:05:35;;;;;;;11.97;6.17;;;15.60;99.90;;;;;;5030784;28;20468;-75
2023/05/02 11:08:30;;;;;;;6.20;5.20;;;15.50;99.90;;;;;;5030146;28;20555;-75
2023/05/02 11:10:57;;;;;;;6.10;5.43;;;15.30;99.90;;;;;;5089407;28;20477;-75
2023/05/02 11:13:49;;;;;;;5.60;5.10;;;15.20;99.90;;;;;;5113646;28;20448;-76
2023/05/02 11:16:16;;;;;;;15.40;6.53;;;15.10;99.90;;;;;;5112608;28;20468;-75
2023/05/02 11:18:59;;;;;;;6.27;5.60;;;15.10;99.90;;;;;;5113212;27;20491;-74
2023/05/02 11:21:31;;;;;;;10.83;5.80;;;15.10;99.90;;;;;;5113001;28;20452;-76
2023/05/02 11:24:43;;;;;;;10.37;6.63;;;15.00;99.90;;;;;;5113220;28;20464;-76
2023/05/02 11:27:38;;;;;;;11.17;6.33;;;15.00;99.90;;;;;;5112873;28;20464;-75
2023/05/02 11:30:07;;;;;;;11.43;7.07;;;15.00;99.50;;;;;;5112235;27;20459;-76
2023/05/02 11:33:07;;;;;;;9.30;6.80;;;14.90;99.10;;;;;;5122321;27;20792;-77
2023/05/02 11:35:36;;;;;;;7.90;4.67;;;14.90;98.80;;;;;;5112858;28;20464;-76
2023/05/02 11:38:08;;;;;;;10.43;5.13;;;14.90;98.60;;;;;;5112968;28;20460;-76
2023/05/02 11:40:35;;;;;;;9.23;4.80;;;14.90;98.30;;;;;;5112204;28;20619;-76
2023/05/02 11:43:12;;;;;;;5.67;4.13;;;15.00;98.00;;;;;;5113165;28;20460;-76
2023/05/02 11:45:41;;;;;;;4.87;4.23;;;15.00;97.70;;;;;;5112694;28;20468;-76
2023/05/02 11:48:09;;;;;;;4.23;3.93;;;15.00;97.00;;;;;;5113081;28;20460;-76
2023/05/02 11:50:42;;;;;;;5.17;3.43;;;15.10;96.70;;;;;;5112453;28;20487;-76
2023/05/02 11:53:13;;;;;;;9.13;3.60;;;15.00;96.40;;;;;;5112333;28;20530;-76
2023/05/02 11:55:50;;;;;;;3.70;3.33;;;15.00;96.40;;;;;;5112251;28;20479;-76
2023/05/02 11:58:19;;;;;;;3.60;3.17;;;15.00;96.00;;;;;;5112907;28;20888;-76
2023/05/02 12:00:47;;;;;;;5.93;4.03;;;15.00;95.90;;;;;;5112358;28;20563;-76
2023/05/02 12:03:22;;;;;;;7.10;4.10;;;15.10;95.90;;;;;;5113080;28;20491;-75
2023/05/02 12:06:00;;;;;;;;;;;;;;;;;;;;;
2023/05/02 12:08:31;;;;;;;5.33;3.50;;;15.10;95.70;;;;;;5112350;28;20499;-75
2023/05/02 12:10:58;;;;;;;8.10;4.23;;;15.20;95.50;;;;;;5112807;28;20460;-76
2023/05/02 12:13:26;;;;;;;5.70;3.60;;;15.10;95.40;;;;;;5113125;28;20545;-76
2023/05/02 12:15:54;;;;;;;3.87;3.13;;;15.10;95.30;;;;;;5112065;28;20958;-75
2023/05/02 12:18:23;;;;;;;7.53;4.80;;;15.10;95.30;;;;;;5112911;28;20779;-75
2023/05/02 12:20:51;;;;;;;4.60;3.20;;;15.10;95.40;;;;;;5112596;28;20468;-77
2023/05/02 12:23:22;;;;;;;7.60;3.00;;;15.20;95.50;;;;;;5112671;28;20547;-74
2023/05/02 12:25:50;;;;;;;6.30;3.40;;;15.20;95.30;;;;;;5117549;28;20460;-76
2023/05/02 12:28:18;;;;;;;10.33;4.20;;;15.20;95.20;;;;;;5113635;28;20919;-76
2023/05/02 12:30:51;;;;;;;5.37;3.30;;;15.30;94.70;;;;;;5112634;28;20974;-76
2023/05/02 12:33:19;;;;;;;8.67;4.17;;;15.30;94.70;;;;;;5113546;28;20464;-76
2023/05/02 12:35:46;;;;;;;5.10;4.33;;;15.40;94.50;;;;;;5112097;28;20468;-74
2023/05/02 12:38:21;;;;;;;5.43;3.83;;;15.40;94.30;;;;;;5116183;28;20469;-74
2023/05/02 12:40:51;;;;;;;7.67;3.60;;;15.40;94.20;;;;;;5107587;28;20464;-76
2023/05/02 12:43:20;;;;;;;6.20;4.10;;;15.50;94.10;;;;;;5116577;28;20951;-76
2023/05/02 12:45:48;;;;;;;7.90;4.17;;;15.40;93.90;;;;;;5112637;28;20812;-76
2023/05/02 12:48:24;;;;;;;8.30;3.57;;;15.50;93.80;;;;;;5112942;28;20540;-75
2023/05/02 12:50:51;;;;;;;5.00;3.60;;;15.50;93.90;;;;;;5112173;28;20452;-75
2023/05/02 12:53:37;;;;;;;6.30;3.80;;;15.60;94.30;;;;;;5112725;28;20455;-75
2023/05/02 12:56:06;;;;;;;7.97;4.53;;;15.60;93.60;;;;;;5112347;28;20473;-75
2023/05/02 12:58:42;;;;;;;10.50;4.53;;;15.60;93.10;;;;;;5113238;28;20948;-75
2023/05/02 13:01:11;;;;;;;9.43;4.50;;;15.60;93.00;;;;;;5111900;28;20452;-75
2023/05/02 13:03:38;;;;;;;6.87;4.60;;;15.60;92.90;;;;;;5113107;28;20480;-75